createdAt,value
2023-04-28T00:00:36.606Z,9.60
2023-04-28T00:03:03.620Z,9.60
2023-04-28T00:05:30.874Z,9.50
2023-04-28T00:07:58.665Z,9.50
2023-04-28T00:10:26.403Z,9.50
2023-04-28T00:12:53.196Z,9.50
2023-04-28T00:15:20.099Z,9.40
2023-04-28T00:17:46.924Z,9.40
2023-04-28T00:20:13.817Z,9.50
2023-04-28T00:22:40.662Z,9.40
2023-04-28T00:25:08.253Z,9.40
2023-04-28T00:27:35.724Z,9.30
2023-04-28T00:30:02.953Z,9.30
2023-04-28T00:32:29.727Z,9.30
2023-04-28T00:34:57.750Z,9.30
2023-04-28T00:37:24.605Z,9.30
2023-04-28T00:39:55.806Z,9.30
2023-04-28T00:42:23.095Z,9.30
2023-04-28T00:44:49.853Z,9.30
2023-04-28T00:47:18.219Z,9.30
2023-04-28T00:49:45.610Z,9.30
2023-04-28T00:52:12.443Z,9.30
2023-04-28T00:54:39.439Z,9.20
2023-04-28T00:57:06.948Z,9.20
2023-04-28T00:59:33.792Z,9.20
2023-04-28T01:02:01.648Z,9.10
2023-04-28T01:04:30.273Z,9.20
2023-04-28T01:06:57.751Z,9.20
2023-04-28T01:09:24.504Z,9.20
2023-04-28T01:11:52.292Z,9.10
2023-04-28T01:14:18.994Z,9.10
2023-04-28T01:16:45.889Z,9.00
2023-04-28T01:19:21.586Z,9.00
2023-04-28T01:21:48.893Z,9.00
2023-04-28T01:24:16.492Z,8.90
2023-04-28T01:26:45.554Z,8.90
2023-04-28T01:29:13.474Z,8.90
2023-04-28T01:31:41.137Z,8.80
2023-04-28T01:34:09.099Z,8.80
2023-04-28T01:36:37.547Z,8.80
2023-04-28T01:39:05.127Z,8.80
2023-04-28T01:41:34.501Z,8.70
2023-04-28T01:44:01.703Z,8.60
2023-04-28T01:46:28.556Z,8.70
2023-04-28T01:48:55.417Z,8.60
2023-04-28T01:51:22.223Z,8.50
2023-04-28T01:53:49.031Z,8.60
2023-04-28T01:56:15.910Z,8.40
2023-04-28T01:58:42.624Z,8.40
2023-04-28T02:01:09.313Z,8.40
2023-04-28T02:03:36.385Z,8.30
2023-04-28T02:06:04.016Z,8.30
2023-04-28T02:08:31.813Z,8.40
2023-04-28T02:10:58.610Z,8.40
2023-04-28T02:13:25.361Z,8.40
2023-04-28T02:15:52.099Z,8.30
2023-04-28T02:18:18.836Z,8.40
2023-04-28T02:20:45.544Z,8.40
2023-04-28T02:23:12.333Z,8.50
2023-04-28T02:25:39.135Z,8.50
2023-04-28T02:28:05.913Z,8.50
2023-04-28T02:30:32.589Z,8.60
2023-04-28T02:32:59.388Z,8.60
2023-04-28T02:35:27.546Z,8.70
2023-04-28T02:37:54.489Z,8.70
2023-04-28T02:40:21.490Z,8.70
2023-04-28T02:42:48.196Z,8.70
2023-04-28T02:45:15.025Z,8.80
2023-04-28T02:47:41.869Z,8.80
2023-04-28T02:50:09.446Z,8.80
2023-04-28T02:52:36.346Z,8.80
2023-04-28T02:55:04.801Z,8.80
2023-04-28T02:57:31.541Z,8.80
2023-04-28T02:59:58.265Z,8.80
2023-04-28T03:02:25.137Z,8.90
2023-04-28T03:04:52.003Z,8.90
2023-04-28T03:07:18.862Z,8.80
2023-04-28T03:09:46.437Z,8.90
2023-04-28T03:12:13.282Z,8.90
2023-04-28T03:14:43.149Z,8.90
2023-04-28T03:17:10.055Z,8.90
2023-04-28T03:19:39.319Z,8.90
2023-04-28T03:22:06.099Z,8.90
2023-04-28T03:24:32.906Z,8.90
2023-04-28T03:26:59.620Z,9.00
2023-04-28T03:29:26.622Z,9.00
2023-04-28T03:31:53.391Z,9.00
2023-04-28T03:34:20.166Z,9.00
2023-04-28T03:36:46.912Z,9.00
2023-04-28T03:39:13.807Z,9.00
2023-04-28T03:41:40.745Z,9.00
2023-04-28T03:44:07.779Z,8.90
2023-04-28T03:46:34.757Z,9.00
2023-04-28T03:49:04.366Z,9.10
2023-04-28T03:51:32.726Z,9.00
2023-04-28T03:53:59.435Z,9.00
2023-04-28T03:56:26.124Z,8.90
2023-04-28T03:58:52.880Z,8.90
2023-04-28T04:01:19.680Z,9.00
2023-04-28T04:03:46.723Z,9.00
2023-04-28T04:06:13.929Z,9.10
2023-04-28T04:08:41.228Z,9.10
2023-04-28T04:11:08.138Z,9.20
2023-04-28T04:13:34.817Z,9.20
2023-04-28T04:16:02.724Z,9.20
2023-04-28T04:18:29.557Z,9.20
2023-04-28T04:20:57.254Z,9.20
2023-04-28T04:23:24.210Z,9.20
2023-04-28T04:25:51.157Z,9.10
2023-04-28T04:28:17.918Z,9.10
2023-04-28T04:30:44.974Z,9.00
2023-04-28T04:33:12.687Z,9.00
2023-04-28T04:35:39.416Z,9.10
2023-04-28T04:38:07.402Z,9.10
2023-04-28T04:40:34.082Z,9.20
2023-04-28T04:43:01.300Z,9.20
2023-04-28T04:45:28.236Z,9.20
2023-04-28T04:47:55.144Z,9.30
2023-04-28T04:50:21.916Z,9.30
2023-04-28T04:52:48.729Z,9.30
2023-04-28T04:55:15.628Z,9.40
2023-04-28T04:57:42.434Z,9.40
2023-04-28T05:00:09.822Z,9.50
2023-04-28T05:02:36.680Z,9.50
2023-04-28T05:05:19.081Z,9.60
2023-04-28T05:07:47.822Z,9.60
2023-04-28T05:10:14.696Z,9.50
2023-04-28T05:12:41.436Z,9.60
2023-04-28T05:15:08.485Z,9.60
2023-04-28T05:17:35.469Z,9.70
2023-04-28T05:20:02.291Z,9.70
2023-04-28T05:22:31.016Z,9.80
2023-04-28T05:24:57.714Z,9.80
2023-04-28T05:27:24.426Z,9.80
2023-04-28T05:29:51.235Z,9.90
2023-04-28T05:32:17.942Z,9.90
2023-04-28T05:34:44.805Z,9.90
2023-04-28T05:37:11.568Z,9.90
2023-04-28T05:39:38.314Z,9.90
2023-04-28T05:42:05.214Z,10.00
2023-04-28T05:44:32.027Z,10.00
2023-04-28T05:46:58.744Z,10.00
2023-04-28T05:49:25.656Z,10.00
2023-04-28T05:51:52.422Z,10.00
2023-04-28T05:54:19.332Z,10.10
2023-04-28T05:56:46.223Z,10.10
2023-04-28T05:59:13.085Z,10.00
2023-04-28T06:01:39.836Z,10.00
2023-04-28T06:04:06.840Z,9.90
2023-04-28T06:06:34.548Z,9.80
2023-04-28T06:09:02.485Z,9.80
2023-04-28T06:11:29.485Z,9.80
2023-04-28T06:13:56.214Z,9.80
2023-04-28T06:16:23.583Z,9.80
2023-04-28T06:18:50.565Z,9.80
2023-04-28T06:21:17.744Z,9.80
2023-04-28T06:23:44.466Z,9.90
2023-04-28T06:26:11.296Z,9.90
2023-04-28T06:28:38.174Z,9.90
2023-04-28T06:31:04.850Z,9.90
2023-04-28T06:33:32.571Z,9.90
2023-04-28T06:35:59.389Z,9.90
2023-04-28T06:38:26.786Z,9.90
2023-04-28T06:40:53.491Z,9.90
2023-04-28T06:43:20.399Z,9.80
2023-04-28T06:45:47.106Z,9.80
2023-04-28T06:48:13.875Z,9.80
2023-04-28T06:50:42.358Z,9.80
2023-04-28T06:53:10.268Z,9.70
2023-04-28T06:55:37.083Z,9.50
2023-04-28T06:58:03.855Z,9.40
2023-04-28T07:00:30.882Z,9.40
2023-04-28T07:02:57.759Z,9.30
2023-04-28T07:05:24.750Z,9.30
2023-04-28T07:07:51.579Z,9.40
2023-04-28T07:10:18.421Z,9.50
2023-04-28T07:12:45.636Z,9.60
2023-04-28T07:15:12.927Z,9.70
2023-04-28T07:17:39.913Z,9.90
2023-04-28T07:20:07.465Z,10.10
2023-04-28T07:22:34.302Z,10.30
2023-04-28T07:25:01.036Z,10.30
2023-04-28T07:27:28.154Z,10.30
2023-04-28T07:29:54.882Z,10.30
2023-04-28T07:32:22.182Z,10.40
2023-04-28T07:34:48.935Z,10.40
2023-04-28T07:37:16.355Z,10.50
2023-04-28T07:39:43.151Z,10.50
2023-04-28T07:42:10.658Z,10.60
2023-04-28T07:44:37.677Z,10.70
2023-04-28T07:47:04.579Z,10.80
2023-04-28T07:49:31.936Z,10.80
2023-04-28T07:51:58.680Z,11.00
2023-04-28T07:54:25.725Z,11.10
2023-04-28T07:56:52.693Z,11.10
2023-04-28T07:59:20.645Z,11.30
2023-04-28T08:01:47.457Z,11.40
2023-04-28T08:04:15.007Z,11.70
2023-04-28T08:06:42.226Z,11.90
2023-04-28T08:09:09.061Z,12.00
2023-04-28T08:11:35.872Z,12.00
2023-04-28T08:14:03.418Z,12.10
2023-04-28T08:16:31.500Z,12.20
2023-04-28T08:19:00.049Z,12.20
2023-04-28T08:21:27.219Z,12.30
2023-04-28T08:23:54.101Z,12.40
2023-04-28T08:26:21.328Z,12.50
2023-04-28T08:28:48.299Z,12.70
2023-04-28T08:31:15.150Z,12.80
2023-04-28T08:33:44.793Z,12.90
2023-04-28T08:36:18.248Z,13.10
2023-04-28T08:38:45.833Z,13.20
2023-04-28T08:41:15.200Z,13.30
2023-04-28T08:43:43.312Z,13.40
2023-04-28T08:46:11.312Z,13.40
2023-04-28T08:48:45.836Z,13.60
2023-04-28T08:51:28.906Z,13.80
2023-04-28T08:54:18.905Z,13.80
2023-04-28T08:56:45.525Z,14.00
2023-04-28T08:59:15.800Z,14.00
2023-04-28T09:01:42.716Z,14.10
2023-04-28T09:04:13.506Z,14.10
2023-04-28T09:06:41.530Z,14.10
2023-04-28T09:09:21.549Z,14.10
2023-04-28T09:11:55.744Z,14.10
2023-04-28T09:14:23.843Z,14.10
2023-04-28T09:16:51.775Z,14.20
2023-04-28T09:19:19.270Z,14.20
2023-04-28T09:21:48.495Z,14.20
2023-04-28T09:24:35.284Z,14.20
2023-04-28T09:27:07.613Z,14.20
2023-04-28T09:29:35.479Z,14.20
2023-04-28T09:32:19.652Z,14.20
2023-04-28T09:34:51.910Z,14.10
2023-04-28T09:37:23.797Z,14.20
2023-04-28T09:39:52.501Z,14.30
2023-04-28T09:42:36.499Z,14.30
2023-04-28T09:45:07.923Z,14.30
2023-04-28T09:47:37.104Z,14.30
2023-04-28T09:50:06.605Z,14.40
2023-04-28T09:52:37.642Z,14.40
2023-04-28T09:55:07.045Z,14.50
2023-04-28T09:57:35.804Z,14.50
2023-04-28T10:00:06.598Z,14.50
2023-04-28T10:05:10.004Z,14.50
2023-04-28T10:07:39.201Z,14.50
2023-04-28T10:10:07.726Z,14.50
2023-04-28T10:12:38.573Z,14.50
2023-04-28T10:15:07.684Z,14.50
2023-04-28T10:17:36.711Z,14.40
2023-04-28T10:20:05.361Z,14.50
2023-04-28T10:23:10.077Z,14.70
2023-04-28T10:25:38.733Z,14.70
2023-04-28T10:28:08.598Z,14.70
2023-04-28T10:30:38.506Z,14.70
2023-04-28T10:33:14.950Z,14.70
2023-04-28T10:35:47.520Z,14.70
2023-04-28T10:38:19.669Z,14.70
2023-04-28T10:41:01.170Z,14.80
2023-04-28T10:43:31.727Z,15.00
2023-04-28T10:46:02.043Z,15.10
2023-04-28T10:48:35.073Z,15.30
2023-04-28T10:51:05.235Z,15.50
2023-04-28T10:53:48.502Z,15.70
2023-04-28T10:56:25.221Z,15.70
2023-04-28T10:58:52.851Z,15.80
2023-04-28T11:01:22.774Z,15.70
2023-04-28T11:04:00.967Z,15.70
2023-04-28T11:06:36.502Z,15.70
2023-04-28T11:09:15.708Z,15.60
2023-04-28T11:11:56.108Z,15.60
2023-04-28T11:14:23.031Z,15.50
2023-04-28T11:17:01.687Z,15.50
2023-04-28T11:19:39.575Z,15.40
2023-04-28T11:22:21.966Z,15.40
2023-04-28T11:24:59.908Z,15.40
2023-04-28T11:27:27.947Z,15.40
2023-04-28T11:29:54.839Z,15.40
2023-04-28T11:32:30.306Z,15.40
2023-04-28T11:34:57.189Z,15.50
2023-04-28T11:37:24.102Z,15.50
2023-04-28T11:39:51.652Z,15.50
2023-04-28T11:42:18.501Z,15.60
2023-04-28T11:44:52.902Z,15.60
2023-04-28T11:47:31.436Z,15.60
2023-04-28T11:49:58.811Z,15.70
2023-04-28T11:52:27.411Z,15.70
2023-04-28T11:55:00.213Z,15.70
2023-04-28T11:57:27.691Z,15.80
2023-04-28T11:59:54.593Z,15.80
2023-04-28T12:02:29.320Z,15.80
2023-04-28T12:04:57.203Z,15.80
2023-04-28T12:07:24.629Z,15.90
2023-04-28T12:10:15.701Z,16.00
2023-04-28T12:12:51.032Z,16.00
2023-04-28T12:15:20.987Z,16.00
2023-04-28T12:17:49.217Z,15.90
2023-04-28T12:20:37.020Z,16.00
2023-04-28T12:23:04.018Z,16.00
2023-04-28T12:25:33.420Z,16.00
2023-04-28T12:28:05.581Z,16.10
2023-04-28T12:30:34.351Z,16.10
2023-04-28T12:33:01.205Z,16.20
2023-04-28T12:35:29.461Z,16.30
2023-04-28T12:37:58.568Z,16.40
2023-04-28T12:40:26.128Z,16.50
2023-04-28T12:42:53.324Z,16.50
2023-04-28T12:45:20.070Z,16.60
2023-04-28T12:47:48.101Z,16.60
2023-04-28T12:50:15.080Z,16.60
2023-04-28T12:52:41.854Z,16.60
2023-04-28T12:55:09.040Z,16.50
2023-04-28T12:57:38.988Z,16.30
2023-04-28T13:00:07.751Z,16.10
2023-04-28T13:02:35.302Z,16.00
2023-04-28T13:05:03.014Z,15.90
2023-04-28T13:07:30.490Z,15.90
2023-04-28T13:09:58.021Z,15.80
2023-04-28T13:12:24.805Z,15.80
2023-04-28T13:14:51.568Z,15.80
2023-04-28T13:17:18.391Z,15.80
2023-04-28T13:19:45.448Z,15.80
2023-04-28T13:22:12.448Z,15.80
2023-04-28T13:24:39.346Z,15.80
2023-04-28T13:27:09.753Z,15.80
2023-04-28T13:29:37.986Z,15.80
2023-04-28T13:32:08.957Z,15.90
2023-04-28T13:34:38.099Z,16.10
2023-04-28T13:37:04.945Z,16.40
2023-04-28T13:39:32.072Z,16.40
2023-04-28T13:42:00.346Z,16.50
2023-04-28T13:44:27.141Z,16.60
2023-04-28T13:46:53.880Z,16.70
2023-04-28T13:49:20.712Z,16.60
2023-04-28T13:51:47.524Z,16.50
2023-04-28T13:54:14.328Z,16.50
2023-04-28T13:56:41.508Z,16.50
2023-04-28T13:59:08.222Z,16.40
2023-04-28T14:01:35.327Z,16.40
2023-04-28T14:04:03.039Z,16.30
2023-04-28T14:06:29.990Z,16.40
2023-04-28T14:08:57.008Z,16.40
2023-04-28T14:11:23.901Z,16.40
2023-04-28T14:13:50.983Z,16.50
2023-04-28T14:16:17.913Z,16.60
2023-04-28T14:18:44.627Z,16.50
2023-04-28T14:21:11.607Z,16.50
2023-04-28T14:23:39.411Z,16.40
2023-04-28T14:26:07.091Z,16.30
2023-04-28T14:28:33.931Z,16.30
2023-04-28T14:31:06.204Z,16.30
2023-04-28T14:33:33.064Z,16.30
2023-04-28T14:36:02.148Z,16.40
2023-04-28T14:38:30.655Z,16.30
2023-04-28T14:40:57.737Z,16.30
2023-04-28T14:43:24.868Z,16.20
2023-04-28T14:45:51.995Z,16.30
2023-04-28T14:48:19.412Z,16.20
2023-04-28T14:50:46.386Z,16.30
2023-04-28T14:53:13.228Z,16.30
2023-04-28T14:55:40.114Z,16.30
2023-04-28T14:58:07.562Z,16.40
2023-04-28T15:00:35.332Z,16.40
2023-04-28T15:03:02.324Z,16.40
2023-04-28T15:05:29.436Z,16.40
2023-04-28T15:07:56.343Z,16.20
2023-04-28T15:10:26.070Z,16.10
2023-04-28T15:12:52.785Z,16.00
2023-04-28T15:15:19.532Z,15.90
2023-04-28T15:17:46.380Z,15.90
2023-04-28T15:20:13.074Z,15.80
2023-04-28T15:22:39.861Z,15.80
2023-04-28T15:25:07.434Z,15.80
2023-04-28T15:27:34.123Z,15.70
2023-04-28T15:30:01.515Z,15.60
2023-04-28T15:32:30.464Z,15.50
2023-04-28T15:34:57.605Z,15.40
2023-04-28T15:37:44.664Z,15.30
2023-04-28T15:40:13.136Z,15.20
2023-04-28T15:42:42.450Z,15.10
2023-04-28T15:45:10.480Z,15.10
2023-04-28T15:47:38.964Z,15.00
2023-04-28T15:50:07.033Z,15.00
2023-04-28T15:52:34.182Z,14.90
2023-04-28T15:55:01.069Z,15.00
2023-04-28T15:57:29.494Z,15.00
2023-04-28T15:59:56.568Z,14.80
2023-04-28T16:02:23.871Z,14.90
2023-04-28T16:04:51.209Z,14.90
2023-04-28T16:07:18.310Z,14.80
2023-04-28T16:09:45.147Z,14.90
2023-04-28T16:12:12.521Z,14.80
2023-04-28T16:14:39.348Z,14.80
2023-04-28T16:17:06.175Z,14.80
2023-04-28T16:19:33.626Z,14.80
2023-04-28T16:22:01.519Z,14.80
2023-04-28T16:24:28.731Z,14.80
2023-04-28T16:26:56.006Z,14.80
2023-04-28T16:29:23.658Z,14.80
2023-04-28T16:31:50.470Z,14.80
2023-04-28T16:34:17.208Z,14.70
2023-04-28T16:36:44.223Z,14.70
2023-04-28T16:39:11.231Z,14.70
2023-04-28T16:41:38.377Z,14.70
2023-04-28T16:44:05.074Z,14.70
2023-04-28T16:46:31.901Z,14.60
2023-04-28T16:48:58.686Z,14.60
2023-04-28T16:51:25.594Z,14.60
2023-04-28T16:53:52.368Z,14.60
2023-04-28T16:56:19.117Z,14.70
2023-04-28T16:58:46.131Z,14.60
2023-04-28T17:01:12.887Z,14.60
2023-04-28T17:03:42.073Z,14.70
2023-04-28T17:06:09.428Z,14.80
2023-04-28T17:08:36.577Z,14.70
2023-04-28T17:11:04.964Z,14.70
2023-04-28T17:13:35.401Z,14.70
2023-04-28T17:16:02.481Z,14.60
2023-04-28T17:18:29.293Z,14.60
2023-04-28T17:20:56.726Z,14.60
2023-04-28T17:23:23.549Z,14.40
2023-04-28T17:25:50.487Z,14.40
2023-04-28T17:28:17.455Z,14.40
2023-04-28T17:30:53.094Z,14.30
2023-04-28T17:33:19.998Z,14.30
2023-04-28T17:35:46.907Z,14.20
2023-04-28T17:38:13.872Z,14.20
2023-04-28T17:40:41.377Z,14.10
2023-04-28T17:43:08.203Z,14.20
2023-04-28T17:45:34.971Z,14.10
2023-04-28T17:48:01.838Z,14.10
2023-04-28T17:50:30.892Z,14.10
2023-04-28T17:52:58.141Z,14.10
2023-04-28T17:55:26.303Z,14.00
2023-04-28T17:57:53.206Z,14.00
2023-04-28T18:00:20.271Z,13.90
2023-04-28T18:02:47.130Z,13.90
2023-04-28T18:05:15.267Z,14.00
2023-04-28T18:07:42.139Z,13.90
2023-04-28T18:10:09.247Z,13.90
2023-04-28T18:12:36.097Z,13.90
2023-04-28T18:15:02.889Z,13.90
2023-04-28T18:17:30.919Z,13.90
2023-04-28T18:19:57.844Z,13.90
2023-04-28T18:22:24.684Z,13.80
2023-04-28T18:24:51.613Z,13.70
2023-04-28T18:27:19.332Z,13.70
2023-04-28T18:29:46.256Z,13.70
2023-04-28T18:32:15.023Z,13.70
2023-04-28T18:34:43.481Z,13.70
2023-04-28T18:37:10.962Z,13.60
2023-04-28T18:39:37.764Z,13.60
2023-04-28T18:42:04.675Z,13.60
2023-04-28T18:44:31.550Z,13.60
2023-04-28T18:46:58.683Z,13.60
2023-04-28T18:49:25.816Z,13.60
2023-04-28T18:51:52.775Z,13.60
2023-04-28T18:54:20.025Z,13.60
2023-04-28T18:56:48.037Z,13.50
2023-04-28T18:59:14.927Z,13.40
2023-04-28T19:01:41.969Z,13.40
2023-04-28T19:04:09.078Z,13.40
2023-04-28T19:06:36.441Z,13.30
2023-04-28T19:09:03.368Z,13.30
2023-04-28T19:11:30.554Z,13.30
2023-04-28T19:13:58.178Z,13.30
2023-04-28T19:16:25.635Z,13.30
2023-04-28T19:18:52.644Z,13.30
2023-04-28T19:21:20.135Z,13.20
2023-04-28T19:23:48.525Z,13.20
2023-04-28T19:26:15.664Z,13.20
2023-04-28T19:28:45.432Z,13.10
2023-04-28T19:31:13.552Z,13.20
2023-04-28T19:33:41.419Z,13.10
2023-04-28T19:36:12.498Z,13.10
2023-04-28T19:38:40.343Z,13.00
2023-04-28T19:41:07.267Z,13.10
2023-04-28T19:43:36.797Z,13.10
2023-04-28T19:46:03.890Z,13.10
2023-04-28T19:48:30.944Z,13.00
2023-04-28T19:51:00.585Z,13.10
2023-04-28T19:53:29.942Z,13.10
2023-04-28T19:56:00.868Z,13.10
2023-04-28T19:58:27.774Z,13.00
2023-04-28T20:00:54.507Z,13.00
2023-04-28T20:03:21.388Z,13.00
2023-04-28T20:05:48.325Z,12.90
2023-04-28T20:08:15.141Z,12.90
2023-04-28T20:10:42.450Z,12.90
2023-04-28T20:13:09.147Z,12.90
2023-04-28T20:15:36.254Z,12.80
2023-04-28T20:18:03.172Z,12.90
2023-04-28T20:20:30.137Z,12.90
2023-04-28T20:22:56.859Z,12.90
2023-04-28T20:25:24.896Z,12.80
2023-04-28T20:27:51.948Z,12.80
2023-04-28T20:30:18.783Z,12.80
2023-04-28T20:32:45.601Z,12.80
2023-04-28T20:35:12.375Z,12.90
2023-04-28T20:37:39.575Z,12.80
2023-04-28T20:40:07.619Z,12.80
2023-04-28T20:42:34.592Z,12.90
2023-04-28T20:45:01.387Z,12.90
2023-04-28T20:47:28.226Z,12.90
2023-04-28T20:49:54.995Z,12.80
2023-04-28T20:52:23.127Z,12.80
2023-04-28T20:54:50.289Z,12.70
2023-04-28T20:57:17.013Z,12.70
2023-04-28T20:59:44.193Z,12.60
2023-04-28T21:02:11.382Z,12.60
2023-04-28T21:04:38.209Z,12.50
2023-04-28T21:07:05.067Z,12.40
2023-04-28T21:09:31.805Z,12.30
2023-04-28T21:12:04.737Z,12.30
2023-04-28T21:14:35.430Z,12.20
2023-04-28T21:17:03.766Z,12.10
2023-04-28T21:19:31.041Z,12.20
2023-04-28T21:21:58.518Z,12.10
2023-04-28T21:24:25.337Z,12.00
2023-04-28T21:26:52.488Z,12.00
2023-04-28T21:29:19.248Z,11.90
2023-04-28T21:31:47.460Z,11.90
2023-04-28T21:34:14.655Z,11.80
2023-04-28T21:36:41.487Z,11.70
2023-04-28T21:39:08.286Z,11.70
2023-04-28T21:41:34.993Z,11.70
2023-04-28T21:44:02.112Z,11.70
2023-04-28T21:46:28.940Z,11.70
2023-04-28T21:48:55.879Z,11.60
2023-04-28T21:51:22.590Z,11.60
2023-04-28T21:53:49.556Z,11.50
2023-04-28T21:56:17.262Z,11.50
2023-04-28T21:58:44.006Z,11.50
2023-04-28T22:01:16.965Z,11.50
2023-04-28T22:03:45.504Z,11.40
2023-04-28T22:06:13.656Z,11.40
2023-04-28T22:08:41.498Z,11.40
2023-04-28T22:11:09.589Z,11.30
2023-04-28T22:13:37.397Z,11.30
2023-04-28T22:16:04.732Z,11.30
2023-04-28T22:18:32.073Z,11.30
2023-04-28T22:20:59.152Z,11.30
2023-04-28T22:23:25.953Z,11.30
2023-04-28T22:25:52.665Z,11.20
2023-04-28T22:28:19.392Z,11.30
2023-04-28T22:30:47.525Z,11.30
2023-04-28T22:33:15.770Z,11.30
2023-04-28T22:35:43.501Z,11.30
2023-04-28T22:38:10.233Z,11.30
2023-04-28T22:40:38.029Z,11.30
2023-04-28T22:43:04.754Z,11.30
2023-04-28T22:45:32.509Z,11.20
2023-04-28T22:47:59.285Z,11.10
2023-04-28T22:50:26.053Z,11.10
2023-04-28T22:52:52.872Z,11.10
2023-04-28T22:55:20.478Z,11.10
2023-04-28T22:57:47.638Z,11.10
2023-04-28T23:00:16.049Z,11.10
2023-04-28T23:02:43.061Z,11.20
2023-04-28T23:05:10.009Z,11.10
2023-04-28T23:07:36.882Z,11.10
2023-04-28T23:10:05.113Z,11.10
2023-04-28T23:12:31.941Z,11.10
2023-04-28T23:14:58.670Z,11.10
2023-04-28T23:17:25.623Z,11.20
2023-04-28T23:19:52.551Z,11.10
2023-04-28T23:22:19.367Z,11.10
2023-04-28T23:24:46.184Z,11.10
2023-04-28T23:27:12.843Z,11.10
2023-04-28T23:29:39.667Z,11.10
2023-04-28T23:32:06.783Z,11.10
2023-04-28T23:34:33.674Z,11.10
2023-04-28T23:37:00.345Z,11.00
2023-04-28T23:39:29.966Z,11.00
2023-04-28T23:41:56.956Z,10.90
2023-04-28T23:44:24.743Z,11.00
2023-04-28T23:46:51.524Z,11.00
2023-04-28T23:49:18.659Z,11.00
2023-04-28T23:51:45.772Z,11.00
2023-04-28T23:54:13.184Z,11.00
2023-04-28T23:56:39.883Z,10.90
2023-04-28T23:59:08.316Z,11.00
